createdAt,value
2022-11-13T00:00:22.884Z,6.6
2022-11-13T00:01:31.442Z,5.4
2022-11-13T00:02:39.828Z,5.4
2022-11-13T00:03:48.123Z,5.4
2022-11-13T00:04:56.686Z,5.9
2022-11-13T00:06:05.026Z,5.9
2022-11-13T00:07:13.438Z,5.9
2022-11-13T00:08:21.901Z,6.9
2022-11-13T00:09:30.255Z,6.9
2022-11-13T00:10:38.575Z,6.9
2022-11-13T00:11:47.120Z,5.8
2022-11-13T00:12:55.457Z,5.8
2022-11-13T00:14:03.805Z,5.8
2022-11-13T00:15:12.376Z,7.5
2022-11-13T00:16:20.716Z,7.5
2022-11-13T00:17:29.043Z,7.5
2022-11-13T00:18:37.595Z,7.3
2022-11-13T00:19:45.924Z,7.3
2022-11-13T00:20:54.288Z,7.3
2022-11-13T00:22:02.851Z,7.6
2022-11-13T00:23:11.299Z,7.6
2022-11-13T00:24:19.521Z,7.6
2022-11-13T00:25:28.084Z,7.6
2022-11-13T00:26:36.415Z,7.6
2022-11-13T00:27:44.763Z,7.6
2022-11-13T00:28:53.326Z,6.8
2022-11-13T00:30:01.664Z,6.8
2022-11-13T00:31:10.026Z,6.8
2022-11-13T00:32:18.562Z,8.3
2022-11-13T00:33:46.156Z,8.3
2022-11-13T00:34:47.441Z,8.3
2022-11-13T00:35:43.779Z,6.4
2022-11-13T00:36:52.120Z,6.4
2022-11-13T00:38:00.469Z,6.4
2022-11-13T00:39:09.139Z,7.5
2022-11-13T00:40:17.361Z,7.5
2022-11-13T00:41:25.691Z,7.5
2022-11-13T00:42:34.258Z,6.3
2022-11-13T00:43:42.598Z,6.3
2022-11-13T00:44:50.949Z,6.3
2022-11-13T00:45:59.499Z,6.2
2022-11-13T00:47:07.834Z,6.2
2022-11-13T00:48:16.160Z,6.2
2022-11-13T00:49:24.725Z,4.8
2022-11-13T00:50:33.068Z,4.8
2022-11-13T00:51:41.397Z,4.8
2022-11-13T00:52:49.939Z,5.5
2022-11-13T00:53:58.282Z,5.5
2022-11-13T00:55:06.735Z,5.5
2022-11-13T00:56:15.168Z,5.1
2022-11-13T00:57:23.500Z,5.1
2022-11-13T00:58:32.055Z,5.1
2022-11-13T00:59:40.411Z,6
2022-11-13T01:00:48.746Z,6
2022-11-13T01:01:57.157Z,6
2022-11-13T01:03:05.636Z,5.4
2022-11-13T01:04:14.008Z,5.4
2022-11-13T01:05:22.350Z,5.4
2022-11-13T01:06:30.898Z,5.4
2022-11-13T01:07:39.235Z,5.4
2022-11-13T01:08:47.579Z,5.4
2022-11-13T01:09:56.149Z,4.4
2022-11-13T01:11:04.590Z,4.4
2022-11-13T01:12:12.813Z,4.4
2022-11-13T01:13:21.375Z,5.1
2022-11-13T01:14:29.704Z,5.1
2022-11-13T01:15:38.048Z,5.1
2022-11-13T01:16:46.583Z,4.6
2022-11-13T01:17:54.919Z,4.6
2022-11-13T01:19:03.281Z,4.6
2022-11-13T01:20:11.843Z,5.4
2022-11-13T01:21:20.155Z,5.4
2022-11-13T01:22:28.508Z,5.4
2022-11-13T01:23:37.036Z,5.4
2022-11-13T01:24:45.392Z,5.4
2022-11-13T01:25:53.735Z,5.4
2022-11-13T01:27:02.391Z,4.5
2022-11-13T01:28:10.609Z,4.5
2022-11-13T01:29:18.963Z,4.5
2022-11-13T01:30:27.496Z,5.4
2022-11-13T01:31:35.834Z,5.4
2022-11-13T01:32:44.177Z,5.4
2022-11-13T01:33:52.750Z,5.4
2022-11-13T01:35:01.066Z,5.4
2022-11-13T01:36:09.402Z,5.4
2022-11-13T01:37:17.941Z,5.7
2022-11-13T01:38:26.580Z,5.7
2022-11-13T01:39:34.635Z,5.7
2022-11-13T01:40:43.171Z,6.1
2022-11-13T01:41:51.517Z,6.1
2022-11-13T01:42:59.982Z,6.1
2022-11-13T01:44:08.410Z,6.2
2022-11-13T01:45:16.755Z,6.2
2022-11-13T01:46:25.094Z,6.2
2022-11-13T01:47:33.637Z,5.6
2022-11-13T01:48:41.981Z,5.6
2022-11-13T01:49:50.330Z,5.6
2022-11-13T01:50:58.857Z,5
2022-11-13T01:52:07.190Z,5
2022-11-13T01:53:15.538Z,5
2022-11-13T01:54:24.078Z,5.7
2022-11-13T01:55:32.414Z,5.7
2022-11-13T01:56:40.749Z,5.7
2022-11-13T01:57:49.287Z,5.5
2022-11-13T01:58:57.762Z,5.5
2022-11-13T02:00:05.992Z,5.5
2022-11-13T02:01:14.559Z,7.5
2022-11-13T02:02:22.855Z,7.5
2022-11-13T02:03:31.201Z,7.5
2022-11-13T02:04:39.731Z,5.2
2022-11-13T02:05:48.071Z,5.2
2022-11-13T02:06:56.434Z,5.2
2022-11-13T02:08:04.957Z,5.7
2022-11-13T02:09:13.293Z,5.7
2022-11-13T02:10:21.638Z,5.7
2022-11-13T02:11:30.185Z,6
2022-11-13T02:12:38.517Z,6
2022-11-13T02:13:46.869Z,6
2022-11-13T02:14:55.551Z,4.7
2022-11-13T02:16:03.755Z,4.7
2022-11-13T02:17:12.095Z,4.7
2022-11-13T02:18:20.638Z,5.3
2022-11-13T02:19:28.979Z,5.3
2022-11-13T02:20:37.333Z,5.3
2022-11-13T02:21:45.859Z,4.6
2022-11-13T02:22:54.207Z,4.6
2022-11-13T02:24:02.583Z,4.6
2022-11-13T02:25:11.100Z,4.5
2022-11-13T02:26:19.429Z,4.5
2022-11-13T02:27:27.764Z,4.5
2022-11-13T02:28:36.318Z,4.8
2022-11-13T02:29:44.653Z,4.8
2022-11-13T02:30:53.120Z,4.8
2022-11-13T02:32:01.537Z,5
2022-11-13T02:33:09.886Z,5
2022-11-13T02:34:18.230Z,5
2022-11-13T02:35:26.771Z,5.3
2022-11-13T02:36:35.100Z,5.3
2022-11-13T02:37:43.449Z,5.3
2022-11-13T02:38:51.980Z,4.6
2022-11-13T02:40:00.327Z,4.6
2022-11-13T02:41:08.677Z,4.6
2022-11-13T02:42:17.205Z,4.8
2022-11-13T02:43:25.565Z,4.8
2022-11-13T02:44:33.889Z,4.8
2022-11-13T02:45:42.438Z,4.7
2022-11-13T02:46:50.915Z,4.7
2022-11-13T02:47:59.131Z,4.7
2022-11-13T02:49:07.678Z,4.2
2022-11-13T02:50:16.017Z,4.2
2022-11-13T02:51:24.345Z,4.2
2022-11-13T02:52:32.922Z,5.9
2022-11-13T02:53:41.243Z,5.9
2022-11-13T02:54:49.565Z,5.9
2022-11-13T02:55:58.126Z,5.4
2022-11-13T02:57:06.444Z,5.4
2022-11-13T02:58:14.791Z,5.4
2022-11-13T02:59:23.376Z,5.3
2022-11-13T03:00:31.708Z,5.3
2022-11-13T03:01:40.119Z,5.3
2022-11-13T03:02:48.717Z,4.9
2022-11-13T03:03:58.220Z,4.9
2022-11-13T03:05:14.077Z,4.9
2022-11-13T03:06:14.724Z,3.8
2022-11-13T03:07:23.088Z,3.8
2022-11-13T03:08:32.076Z,3.8
2022-11-13T03:09:39.949Z,5
2022-11-13T03:10:48.294Z,5
2022-11-13T03:11:56.628Z,5
2022-11-13T03:13:05.171Z,4.3
2022-11-13T03:14:13.519Z,4.3
2022-11-13T03:15:21.847Z,4.3
2022-11-13T03:16:30.414Z,4.2
2022-11-13T03:17:38.745Z,4.2
2022-11-13T03:18:47.222Z,4.2
2022-11-13T03:19:55.645Z,3.6
2022-11-13T03:21:03.983Z,3.6
2022-11-13T03:22:12.320Z,3.6
2022-11-13T03:23:20.881Z,4
2022-11-13T03:24:29.247Z,4
2022-11-13T03:25:37.592Z,4
2022-11-13T03:26:46.138Z,4
2022-11-13T03:27:54.477Z,4
2022-11-13T03:29:02.838Z,4
2022-11-13T03:30:11.399Z,4.1
2022-11-13T03:31:19.724Z,4.1
2022-11-13T03:32:28.064Z,4.1
2022-11-13T03:33:36.625Z,3.8
2022-11-13T03:34:45.067Z,3.8
2022-11-13T03:35:53.278Z,3.8
2022-11-13T03:37:01.844Z,3.9
2022-11-13T03:38:10.169Z,3.9
2022-11-13T03:39:18.501Z,3.9
2022-11-13T03:40:27.047Z,3.8
2022-11-13T03:41:35.371Z,3.8
2022-11-13T03:42:43.724Z,3.8
2022-11-13T03:43:52.275Z,4.3
2022-11-13T03:45:00.605Z,4.3
2022-11-13T03:46:08.946Z,4.3
2022-11-13T03:47:17.482Z,3.3
2022-11-13T03:48:26.147Z,3.3
2022-11-13T03:49:34.154Z,3.3
2022-11-13T03:50:45.415Z,3.4
2022-11-13T03:51:51.022Z,3.4
2022-11-13T03:52:59.385Z,3.4
2022-11-13T03:54:07.936Z,3.5
2022-11-13T03:55:16.262Z,3.5
2022-11-13T03:56:24.600Z,3.5
2022-11-13T03:57:33.151Z,3.4
2022-11-13T03:58:43.698Z,3.4
2022-11-13T03:59:49.827Z,3.4
2022-11-13T04:00:58.372Z,2.7
2022-11-13T04:02:06.778Z,2.7
2022-11-13T04:03:15.060Z,2.7
2022-11-13T04:04:23.595Z,3.2
2022-11-13T04:05:31.927Z,3.2
2022-11-13T04:06:40.436Z,3.2
2022-11-13T04:07:48.818Z,3
2022-11-13T04:08:57.141Z,3
2022-11-13T04:10:05.480Z,3
2022-11-13T04:11:14.035Z,3.2
2022-11-13T04:12:22.357Z,3.2
2022-11-13T04:13:30.706Z,3.2
2022-11-13T04:14:39.258Z,3.4
2022-11-13T04:15:47.595Z,3.4
2022-11-13T04:16:55.936Z,3.4
2022-11-13T04:18:04.480Z,4.4
2022-11-13T04:19:12.807Z,4.4
2022-11-13T04:20:21.163Z,4.4
2022-11-13T04:21:29.709Z,3.2
2022-11-13T04:22:38.157Z,3.2
2022-11-13T04:23:46.385Z,3.2
2022-11-13T04:24:54.931Z,3.5
2022-11-13T04:26:03.252Z,3.5
2022-11-13T04:27:11.594Z,3.5
2022-11-13T04:28:20.147Z,3.7
2022-11-13T04:29:28.472Z,3.7
2022-11-13T04:30:36.810Z,3.7
2022-11-13T04:31:45.373Z,2.9
2022-11-13T04:32:53.718Z,2.9
2022-11-13T04:34:02.047Z,2.9
2022-11-13T04:35:10.595Z,3.2
2022-11-13T04:36:18.926Z,3.2
2022-11-13T04:37:27.300Z,3.2
2022-11-13T04:38:35.954Z,3.7
2022-11-13T04:39:44.171Z,3.7
2022-11-13T04:40:52.502Z,3.7
2022-11-13T04:42:01.054Z,3.7
2022-11-13T04:43:09.391Z,3.7
2022-11-13T04:44:17.724Z,3.7
2022-11-13T04:45:26.275Z,4.2
2022-11-13T04:46:34.596Z,4.2
2022-11-13T04:47:42.943Z,4.2
2022-11-13T04:48:51.486Z,3.2
2022-11-13T04:49:59.819Z,3.2
2022-11-13T04:51:08.164Z,3.2
2022-11-13T04:52:16.702Z,5.2
2022-11-13T04:53:25.055Z,5.2
2022-11-13T04:54:33.513Z,5.2
2022-11-13T04:55:41.926Z,5.2
2022-11-13T04:56:50.260Z,5.2
2022-11-13T04:57:58.602Z,5.2
2022-11-13T04:59:07.148Z,4.2
2022-11-13T05:00:15.482Z,4.2
2022-11-13T05:01:23.865Z,4.2
2022-11-13T05:02:32.361Z,5
2022-11-13T05:03:40.704Z,5
2022-11-13T05:04:49.044Z,5
2022-11-13T05:05:57.579Z,3.7
2022-11-13T05:07:06.003Z,3.7
2022-11-13T05:08:14.260Z,3.7
2022-11-13T05:09:22.807Z,4.3
2022-11-13T05:10:31.259Z,4.3
2022-11-13T05:11:39.486Z,4.3
2022-11-13T05:12:48.034Z,5.1
2022-11-13T05:13:59.514Z,5.1
2022-11-13T05:15:04.714Z,5.1
2022-11-13T05:16:13.250Z,3.5
2022-11-13T05:17:21.588Z,3.5
2022-11-13T05:18:30.429Z,3.5
2022-11-13T05:19:38.487Z,3.8
2022-11-13T05:20:46.820Z,3.8
2022-11-13T05:21:55.165Z,3.8
2022-11-13T05:23:03.709Z,5
2022-11-13T05:24:12.043Z,5
2022-11-13T05:25:20.390Z,5
2022-11-13T05:26:29.051Z,4.7
2022-11-13T05:27:37.284Z,4.7
2022-11-13T05:28:45.627Z,4.7
2022-11-13T05:29:54.157Z,4.4
2022-11-13T05:31:02.500Z,4.4
2022-11-13T05:32:10.848Z,4.4
2022-11-13T05:33:19.387Z,4.1
2022-11-13T05:34:27.754Z,4.1
2022-11-13T05:35:36.099Z,4.1
2022-11-13T05:36:44.630Z,3.6
2022-11-13T05:37:52.984Z,3.6
2022-11-13T05:39:01.322Z,3.6
2022-11-13T05:40:09.855Z,3.2
2022-11-13T05:41:18.197Z,3.2
2022-11-13T05:42:26.564Z,3.2
2022-11-13T05:43:35.085Z,3.2
2022-11-13T05:44:43.403Z,3.2
2022-11-13T05:45:51.742Z,3.2
2022-11-13T05:47:00.288Z,3.4
2022-11-13T05:48:08.625Z,3.4
2022-11-13T05:49:16.956Z,3.4
2022-11-13T05:50:25.492Z,3.5
2022-11-13T05:51:33.838Z,3.5
2022-11-13T05:52:42.202Z,3.5
2022-11-13T05:53:50.736Z,3.4
2022-11-13T05:54:59.076Z,3.4
2022-11-13T05:56:07.412Z,3.4
2022-11-13T05:57:15.956Z,3.5
2022-11-13T05:58:24.405Z,3.5
2022-11-13T05:59:32.612Z,3.5
2022-11-13T06:00:41.152Z,3
2022-11-13T06:01:49.527Z,3
2022-11-13T06:02:57.845Z,3
2022-11-13T06:04:06.375Z,2.9
2022-11-13T06:05:14.728Z,2.9
2022-11-13T06:06:23.064Z,2.9
2022-11-13T06:07:31.618Z,3.4
2022-11-13T06:08:39.966Z,3.4
2022-11-13T06:09:48.313Z,3.4
2022-11-13T06:10:56.851Z,3.1
2022-11-13T06:12:05.202Z,3.1
2022-11-13T06:13:13.551Z,3.1
2022-11-13T06:14:22.192Z,3.3
2022-11-13T06:15:30.400Z,3.3
2022-11-13T06:16:38.731Z,3.3
2022-11-13T06:17:47.284Z,3.7
2022-11-13T06:18:55.621Z,3.7
2022-11-13T06:20:03.949Z,3.7
2022-11-13T06:21:12.497Z,4.4
2022-11-13T06:22:20.839Z,4.4
2022-11-13T06:23:29.177Z,4.4
2022-11-13T06:24:37.723Z,3.8
2022-11-13T06:25:46.064Z,3.8
2022-11-13T06:26:54.410Z,3.8
2022-11-13T06:28:02.948Z,4.9
2022-11-13T06:29:11.291Z,4.9
2022-11-13T06:30:19.745Z,4.9
2022-11-13T06:31:28.178Z,4.5
2022-11-13T06:32:36.507Z,4.5
2022-11-13T06:33:44.842Z,4.5
2022-11-13T06:34:53.389Z,4.5
2022-11-13T06:36:01.731Z,4.5
2022-11-13T06:37:10.075Z,4.5
2022-11-13T06:38:18.616Z,3.3
2022-11-13T06:39:26.968Z,3.3
2022-11-13T06:40:35.297Z,3.3
2022-11-13T06:41:43.861Z,3.9
2022-11-13T06:42:52.188Z,3.9
2022-11-13T06:44:02.868Z,3.9
2022-11-13T06:45:09.068Z,2.6
2022-11-13T06:46:17.522Z,2.6
2022-11-13T06:47:25.764Z,2.6
2022-11-13T06:48:34.322Z,3
2022-11-13T06:49:42.655Z,3
2022-11-13T06:50:51.008Z,3
2022-11-13T06:51:59.579Z,3
2022-11-13T06:53:07.903Z,3
2022-11-13T06:54:16.260Z,3
2022-11-13T06:55:24.800Z,3.4
2022-11-13T06:56:33.184Z,3.4
2022-11-13T06:57:41.546Z,3.4
2022-11-13T06:58:50.093Z,3.3
2022-11-13T06:59:58.459Z,3.3
2022-11-13T07:01:06.877Z,3.3
2022-11-13T07:02:15.474Z,3.6
2022-11-13T07:03:23.687Z,3.6
2022-11-13T07:04:32.014Z,3.6
2022-11-13T07:05:40.588Z,3.2
2022-11-13T07:06:48.954Z,3.2
2022-11-13T07:07:57.256Z,3.2
2022-11-13T07:09:05.814Z,3.1
2022-11-13T07:10:14.184Z,3.1
2022-11-13T07:11:22.509Z,3.1
2022-11-13T07:12:31.049Z,5.6
2022-11-13T07:13:39.407Z,5.6
2022-11-13T07:14:47.724Z,5.6
2022-11-13T07:15:56.282Z,3.5
2022-11-13T07:17:09.503Z,3.5
2022-11-13T07:18:13.063Z,3.5
2022-11-13T07:19:21.500Z,3.7
2022-11-13T07:20:29.875Z,3.7
2022-11-13T07:21:38.183Z,3.7
2022-11-13T07:22:46.722Z,3.9
2022-11-13T07:23:55.072Z,3.9
2022-11-13T07:25:03.417Z,3.9
2022-11-13T07:26:11.984Z,3.8
2022-11-13T07:27:20.307Z,3.8
2022-11-13T07:28:28.903Z,3.8
2022-11-13T07:29:37.208Z,4.3
2022-11-13T07:30:45.538Z,4.3
2022-11-13T07:31:53.881Z,4.3
2022-11-13T07:33:02.424Z,4.5
2022-11-13T07:34:10.886Z,4.5
2022-11-13T07:35:19.100Z,4.5
2022-11-13T07:36:27.656Z,3.4
2022-11-13T07:37:35.991Z,3.4
2022-11-13T07:38:44.329Z,3.4
2022-11-13T07:39:52.883Z,2.6
2022-11-13T07:41:01.217Z,2.6
2022-11-13T07:42:09.566Z,2.6
2022-11-13T07:43:18.099Z,5
2022-11-13T07:44:48.321Z,5
2022-11-13T07:45:34.783Z,5
2022-11-13T07:46:43.330Z,3
2022-11-13T07:47:51.672Z,3
2022-11-13T07:48:59.999Z,3
2022-11-13T07:50:10.947Z,3.1
2022-11-13T07:51:16.911Z,3.1
2022-11-13T07:52:25.246Z,3.1
2022-11-13T07:53:33.787Z,6.9
2022-11-13T07:54:42.131Z,6.9
2022-11-13T07:55:50.458Z,6.9
2022-11-13T07:56:58.997Z,2.9
2022-11-13T07:58:07.338Z,2.9
2022-11-13T07:59:15.667Z,2.9
2022-11-13T08:00:24.208Z,2.5
2022-11-13T08:01:32.600Z,2.5
2022-11-13T08:02:40.880Z,2.5
2022-11-13T08:03:49.421Z,3.7
2022-11-13T08:04:57.770Z,3.7
2022-11-13T08:06:06.238Z,3.7
2022-11-13T08:07:14.740Z,4.7
2022-11-13T08:08:23.000Z,4.7
2022-11-13T08:09:31.334Z,4.7
2022-11-13T08:10:39.883Z,4
2022-11-13T08:11:48.219Z,4
2022-11-13T08:12:56.563Z,4
2022-11-13T08:14:05.128Z,4
2022-11-13T08:15:13.748Z,4
2022-11-13T08:16:21.825Z,4
2022-11-13T08:17:30.371Z,6.8
2022-11-13T08:18:38.711Z,6.8
2022-11-13T08:19:47.060Z,6.8
2022-11-13T08:20:55.605Z,3.9
2022-11-13T08:22:04.054Z,3.9
2022-11-13T08:23:12.274Z,3.9
2022-11-13T08:24:20.846Z,6.1
2022-11-13T08:25:29.178Z,6.1
2022-11-13T08:26:37.511Z,6.1
2022-11-13T08:27:46.060Z,3.7
2022-11-13T08:28:54.393Z,3.7
2022-11-13T08:30:02.732Z,3.7
2022-11-13T08:31:11.290Z,4
2022-11-13T08:32:19.620Z,4
2022-11-13T08:33:27.965Z,4
2022-11-13T08:34:36.515Z,3
2022-11-13T08:35:44.843Z,3
2022-11-13T08:36:53.214Z,3
2022-11-13T08:38:01.851Z,3.7
2022-11-13T08:39:10.077Z,3.7
2022-11-13T08:40:18.399Z,3.7
2022-11-13T08:41:26.949Z,3.9
2022-11-13T08:42:35.293Z,3.9
2022-11-13T08:43:43.613Z,3.9
2022-11-13T08:44:52.200Z,3.1
2022-11-13T08:46:00.527Z,3.1
2022-11-13T08:47:08.858Z,3.1
2022-11-13T08:48:17.410Z,3.3
2022-11-13T08:49:25.747Z,3.3
2022-11-13T08:50:34.084Z,3.3
2022-11-13T08:51:42.641Z,3.9
2022-11-13T08:52:50.970Z,3.9
2022-11-13T08:53:59.445Z,3.9
2022-11-13T08:55:07.874Z,3.9
2022-11-13T08:56:16.205Z,3.9
2022-11-13T08:57:24.544Z,3.9
2022-11-13T08:58:33.151Z,3.7
2022-11-13T08:59:41.431Z,3.7
2022-11-13T09:00:49.763Z,3.7
2022-11-13T09:01:58.304Z,4
2022-11-13T09:03:06.635Z,4
2022-11-13T09:04:15.030Z,4
2022-11-13T09:05:23.525Z,5.4
2022-11-13T09:06:31.855Z,5.4
2022-11-13T09:07:40.189Z,5.4
2022-11-13T09:08:48.736Z,5.2
2022-11-13T09:09:57.185Z,5.2
2022-11-13T09:11:05.407Z,5.2
2022-11-13T09:12:13.943Z,5.3
2022-11-13T09:13:22.297Z,5.3
2022-11-13T09:14:30.657Z,5.3
2022-11-13T09:15:39.172Z,5
2022-11-13T09:16:47.514Z,5
2022-11-13T09:17:55.869Z,5
2022-11-13T09:19:04.420Z,5.5
2022-11-13T09:20:13.924Z,5.5
2022-11-13T09:21:21.089Z,5.5
2022-11-13T09:22:29.628Z,5.2
2022-11-13T09:23:37.984Z,5.2
2022-11-13T09:24:46.324Z,5.2
2022-11-13T09:25:54.984Z,5.9
2022-11-13T09:27:03.217Z,5.9
2022-11-13T09:28:11.560Z,5.9
2022-11-13T09:29:20.108Z,5
2022-11-13T09:30:28.469Z,5
2022-11-13T09:31:36.795Z,5
2022-11-13T09:32:45.344Z,6.8
2022-11-13T09:33:53.704Z,6.8
2022-11-13T09:35:02.031Z,6.8
2022-11-13T09:36:10.598Z,5.4
2022-11-13T09:37:18.961Z,5.4
2022-11-13T09:38:27.588Z,5.4
2022-11-13T09:39:35.845Z,3.8
2022-11-13T09:40:44.204Z,3.8
2022-11-13T09:41:52.645Z,3.8
2022-11-13T09:43:01.071Z,3.6
2022-11-13T09:44:09.413Z,3.6
2022-11-13T09:45:17.743Z,3.6
2022-11-13T09:46:26.287Z,3.5
2022-11-13T09:47:34.633Z,3.5
2022-11-13T09:48:42.977Z,3.5
2022-11-13T09:49:51.546Z,3.9
2022-11-13T09:50:59.876Z,3.9
2022-11-13T09:52:08.196Z,3.9
2022-11-13T09:53:16.754Z,4.2
2022-11-13T09:54:25.104Z,4.2
2022-11-13T09:55:33.442Z,4.2
2022-11-13T09:56:41.979Z,3.1
2022-11-13T09:57:50.429Z,3.1
2022-11-13T09:58:58.656Z,3.1
2022-11-13T10:00:07.214Z,3.3
2022-11-13T10:01:15.597Z,3.3
2022-11-13T10:02:23.876Z,3.3
2022-11-13T10:03:54.552Z,3.4
2022-11-13T10:04:40.763Z,3.4
2022-11-13T10:05:49.102Z,3.4
2022-11-13T10:06:57.666Z,4.9
2022-11-13T10:08:05.982Z,4.9
2022-11-13T10:09:14.338Z,4.9
2022-11-13T10:10:22.888Z,3.7
2022-11-13T10:11:31.211Z,3.7
2022-11-13T10:12:39.549Z,3.7
2022-11-13T10:13:48.224Z,3.1
2022-11-13T10:14:56.478Z,3.1
2022-11-13T10:16:04.821Z,3.1
2022-11-13T10:17:13.369Z,3.5
2022-11-13T10:18:21.717Z,3.5
2022-11-13T10:19:30.053Z,3.5
2022-11-13T10:20:38.604Z,4.8
2022-11-13T10:21:46.941Z,4.8
2022-11-13T10:22:55.289Z,4.8
2022-11-13T10:24:03.828Z,4.5
2022-11-13T10:25:12.161Z,4.5
2022-11-13T10:26:20.486Z,4.5
2022-11-13T10:27:29.138Z,3.1
2022-11-13T10:28:50.361Z,3.1
2022-11-13T10:29:48.931Z,3.1
2022-11-13T10:30:54.245Z,3.5
2022-11-13T10:32:02.602Z,3.5
2022-11-13T10:33:10.923Z,3.5
2022-11-13T10:34:19.456Z,3
2022-11-13T10:35:27.790Z,3
2022-11-13T10:36:36.124Z,3
2022-11-13T10:37:44.675Z,3.1
2022-11-13T10:38:53.009Z,3.1
2022-11-13T10:40:01.333Z,3.1
2022-11-13T10:41:09.883Z,3.1
2022-11-13T10:42:18.224Z,3.1
2022-11-13T10:43:26.874Z,3.1
2022-11-13T10:44:35.119Z,3.4
2022-11-13T10:45:43.579Z,3.4
2022-11-13T10:46:51.800Z,3.4
2022-11-13T10:48:04.830Z,3.8
2022-11-13T10:49:08.707Z,3.8
2022-11-13T10:50:17.040Z,3.8
2022-11-13T10:51:25.582Z,3.4
2022-11-13T10:52:33.916Z,3.4
2022-11-13T10:53:42.275Z,3.4
2022-11-13T10:54:50.822Z,3.7
2022-11-13T10:55:59.169Z,3.7
2022-11-13T10:57:07.511Z,3.7
2022-11-13T10:58:16.084Z,2.6
2022-11-13T10:59:24.405Z,2.6
2022-11-13T11:00:32.746Z,2.6
2022-11-13T11:01:41.486Z,2.9
2022-11-13T11:02:49.612Z,2.9
2022-11-13T11:03:57.963Z,2.9
2022-11-13T11:05:06.497Z,3.1
2022-11-13T11:06:14.832Z,3.1
2022-11-13T11:07:23.307Z,3.1
2022-11-13T11:08:32.111Z,3.1
2022-11-13T11:09:40.065Z,3.1
2022-11-13T11:10:48.396Z,3.1
2022-11-13T11:11:56.951Z,3
2022-11-13T11:13:05.294Z,3
2022-11-13T11:14:13.629Z,3
2022-11-13T11:15:22.167Z,4.4
2022-11-13T11:16:30.496Z,4.4
2022-11-13T11:17:38.948Z,4.4
2022-11-13T11:18:47.397Z,3
2022-11-13T11:19:55.729Z,3
2022-11-13T11:21:04.064Z,3
2022-11-13T11:22:12.608Z,2.9
2022-11-13T11:23:20.953Z,2.9
2022-11-13T11:24:29.298Z,2.9
2022-11-13T11:25:37.830Z,4.3
2022-11-13T11:26:46.180Z,4.3
2022-11-13T11:27:54.512Z,4.3
2022-11-13T11:29:03.062Z,4.2
2022-11-13T11:30:11.399Z,4.2
2022-11-13T11:31:19.756Z,4.2
2022-11-13T11:32:28.289Z,3.2
2022-11-13T11:33:36.761Z,3.2
2022-11-13T11:34:44.982Z,3.2
2022-11-13T11:35:53.539Z,4.5
2022-11-13T11:37:01.864Z,4.5
2022-11-13T11:38:10.215Z,4.5
2022-11-13T11:39:18.772Z,2.8
2022-11-13T11:40:27.104Z,2.8
2022-11-13T11:41:35.444Z,2.8
2022-11-13T11:42:44.009Z,3.2
2022-11-13T11:43:52.339Z,3.2
2022-11-13T11:45:00.685Z,3.2
2022-11-13T11:46:09.240Z,3.2
2022-11-13T11:47:17.593Z,3.2
2022-11-13T11:48:26.047Z,3.2
2022-11-13T11:49:34.614Z,3.8
2022-11-13T11:50:42.833Z,3.8
2022-11-13T11:51:51.169Z,3.8
2022-11-13T11:52:59.731Z,4.1
2022-11-13T11:54:08.060Z,4.1
2022-11-13T11:55:16.412Z,4.1
2022-11-13T11:56:24.978Z,4.6
2022-11-13T11:57:33.319Z,4.6
2022-11-13T11:58:41.661Z,4.6
2022-11-13T11:59:50.206Z,4
2022-11-13T12:00:58.552Z,4
2022-11-13T12:02:06.894Z,4
2022-11-13T12:03:15.442Z,2.8
2022-11-13T12:04:23.785Z,2.8
2022-11-13T12:05:32.264Z,2.8
2022-11-13T12:06:40.712Z,2.9
2022-11-13T12:07:49.008Z,2.9
2022-11-13T12:08:57.338Z,2.9
2022-11-13T12:10:05.877Z,2.8
2022-11-13T12:11:14.210Z,2.8
2022-11-13T12:12:22.557Z,2.8
2022-11-13T12:13:31.100Z,3.7
2022-11-13T12:14:39.437Z,3.7
2022-11-13T12:15:47.757Z,3.7
2022-11-13T12:16:56.376Z,3.3
2022-11-13T12:18:04.651Z,3.3
2022-11-13T12:19:12.982Z,3.3
2022-11-13T12:20:21.530Z,3.6
2022-11-13T12:21:30.007Z,3.6
2022-11-13T12:22:38.208Z,3.6
2022-11-13T12:23:46.759Z,3.2
2022-11-13T12:24:55.083Z,3.2
2022-11-13T12:26:03.436Z,3.2
2022-11-13T12:27:12.013Z,2.7
2022-11-13T12:28:20.334Z,2.7
2022-11-13T12:29:28.692Z,2.7
2022-11-13T12:30:37.233Z,4.2
2022-11-13T12:31:45.567Z,4.2
2022-11-13T12:32:53.907Z,4.2
2022-11-13T12:34:02.450Z,3.2
2022-11-13T12:35:10.777Z,3.2
2022-11-13T12:36:19.124Z,3.2
2022-11-13T12:37:27.798Z,3.2
2022-11-13T12:38:36.011Z,3.2
2022-11-13T12:39:44.365Z,3.2
2022-11-13T12:40:52.897Z,2.9
2022-11-13T12:42:01.255Z,2.9
2022-11-13T12:43:09.576Z,2.9
2022-11-13T12:44:18.122Z,5
2022-11-13T12:45:26.457Z,5
2022-11-13T12:46:34.802Z,5
2022-11-13T12:47:43.358Z,4.9
2022-11-13T12:48:51.689Z,4.9
2022-11-13T12:50:00.048Z,4.9
2022-11-13T12:51:08.608Z,5.6
2022-11-13T12:52:16.917Z,5.6
2022-11-13T12:53:25.365Z,5.6
2022-11-13T12:54:33.799Z,2.7
2022-11-13T12:55:42.172Z,2.7
2022-11-13T12:56:50.532Z,2.7
2022-11-13T12:57:59.081Z,2.3
2022-11-13T12:59:29.552Z,2.3
2022-11-13T13:00:15.774Z,2.3
2022-11-13T13:01:24.392Z,2.2
2022-11-13T13:02:32.648Z,2.2
2022-11-13T13:03:40.998Z,2.2
2022-11-13T13:04:49.541Z,3
2022-11-13T13:05:57.887Z,3
2022-11-13T13:07:06.305Z,3
2022-11-13T13:08:14.763Z,4
2022-11-13T13:09:23.237Z,4
2022-11-13T13:10:31.459Z,4
2022-11-13T13:11:40.018Z,4
2022-11-13T13:12:48.359Z,4
2022-11-13T13:13:56.708Z,4
2022-11-13T13:15:05.254Z,7.6
2022-11-13T13:16:13.592Z,7.6
2022-11-13T13:17:21.939Z,7.6
2022-11-13T13:18:30.877Z,3
2022-11-13T13:19:38.836Z,3
2022-11-13T13:20:47.184Z,3
2022-11-13T13:21:55.737Z,5.6
2022-11-13T13:23:08.385Z,5.6
2022-11-13T13:24:12.408Z,5.6
2022-11-13T13:25:21.076Z,2.9
2022-11-13T13:26:29.297Z,2.9
2022-11-13T13:27:37.637Z,2.9
2022-11-13T13:28:46.188Z,3.3
2022-11-13T13:29:54.536Z,3.3
2022-11-13T13:31:02.871Z,3.3
2022-11-13T13:32:13.722Z,2.7
2022-11-13T13:33:19.766Z,2.7
2022-11-13T13:34:31.084Z,2.7
2022-11-13T13:35:36.652Z,3.6
2022-11-13T13:36:44.977Z,3.6
2022-11-13T13:37:53.308Z,3.6
2022-11-13T13:39:01.855Z,2.1
2022-11-13T13:40:10.199Z,2.1
2022-11-13T13:41:18.658Z,2.1
2022-11-13T13:42:27.081Z,3.9
2022-11-13T13:43:35.419Z,3.9
2022-11-13T13:44:43.744Z,3.9
2022-11-13T13:45:52.319Z,2.6
2022-11-13T13:47:00.663Z,2.6
2022-11-13T13:48:09.018Z,2.6
2022-11-13T13:49:17.557Z,3
2022-11-13T13:50:25.892Z,3
2022-11-13T13:51:34.241Z,3
2022-11-13T13:52:42.801Z,2.8
2022-11-13T13:53:51.133Z,2.8
2022-11-13T13:54:59.471Z,2.8
2022-11-13T13:56:08.033Z,2.3
2022-11-13T13:57:16.395Z,2.3
2022-11-13T13:58:24.714Z,2.3
2022-11-13T13:59:33.276Z,2.5
2022-11-13T14:00:59.309Z,2.5
2022-11-13T14:01:49.976Z,2.5
2022-11-13T14:02:58.484Z,4.5
2022-11-13T14:04:06.831Z,4.5
2022-11-13T14:05:15.147Z,4.5
2022-11-13T14:06:23.718Z,2.3
2022-11-13T14:07:32.062Z,2.3
2022-11-13T14:08:40.387Z,2.3
2022-11-13T14:09:48.934Z,3.1
2022-11-13T14:10:57.312Z,3.1
2022-11-13T14:12:09.475Z,3.1
2022-11-13T14:13:14.298Z,3.3
2022-11-13T14:14:22.537Z,3.3
2022-11-13T14:15:30.862Z,3.3
2022-11-13T14:16:39.414Z,3.2
2022-11-13T14:17:47.773Z,3.2
2022-11-13T14:18:56.099Z,3.2
2022-11-13T14:20:04.649Z,3
2022-11-13T14:21:13.000Z,3
2022-11-13T14:22:21.320Z,3
2022-11-13T14:23:29.859Z,6
2022-11-13T14:24:38.264Z,6
2022-11-13T14:25:46.563Z,6
2022-11-13T14:26:55.107Z,3.4
2022-11-13T14:28:03.448Z,3.4
2022-11-13T14:29:11.897Z,3.4
2022-11-13T14:30:20.335Z,6.7
2022-11-13T15:03:29.708Z,0
2022-11-13T15:04:40.379Z,0
2022-11-13T15:05:46.090Z,0
2022-11-13T15:06:54.712Z,5
2022-11-13T15:08:03.021Z,5
2022-11-13T15:09:11.377Z,5
2022-11-13T15:10:19.936Z,4
2022-11-13T15:11:28.288Z,4
2022-11-13T15:12:36.629Z,4
2022-11-13T15:13:45.183Z,3.9
2022-11-13T15:14:53.534Z,3.9
2022-11-13T15:16:01.886Z,3.9
2022-11-13T15:17:10.431Z,3.3
2022-11-13T15:18:18.772Z,3.3
2022-11-13T15:19:27.258Z,3.3
2022-11-13T15:20:35.701Z,8.1
2022-11-13T15:21:47.849Z,8.1
2022-11-13T15:22:52.378Z,8.1
2022-11-13T15:24:00.933Z,6.3
2022-11-13T15:25:09.295Z,6.3
2022-11-13T15:26:17.645Z,6.3
2022-11-13T15:27:26.202Z,8.7
2022-11-13T15:28:34.555Z,8.7
2022-11-13T15:29:42.940Z,8.7
2022-11-13T15:30:51.501Z,10.8
2022-11-13T15:31:59.852Z,10.8
2022-11-13T15:33:08.194Z,10.8
2022-11-13T15:34:16.766Z,8.9
2022-11-13T15:35:25.234Z,8.9
2022-11-13T15:36:33.471Z,8.9
2022-11-13T15:37:42.016Z,8.3
2022-11-13T15:38:50.368Z,8.3
2022-11-13T15:39:58.722Z,8.3
2022-11-13T15:41:07.287Z,7.8
2022-11-13T15:42:15.665Z,7.8
2022-11-13T15:43:24.030Z,7.8
2022-11-13T15:44:32.568Z,6.9
2022-11-13T15:45:44.133Z,6.9
2022-11-13T15:46:49.266Z,6.9
2022-11-13T15:47:57.816Z,5.9
2022-11-13T15:49:06.150Z,5.9
2022-11-13T15:50:15.759Z,5.9
2022-11-13T15:51:23.206Z,5.5
2022-11-13T15:52:31.437Z,5.5
2022-11-13T15:53:39.785Z,5.5
2022-11-13T15:54:48.350Z,4.9
2022-11-13T15:55:56.704Z,4.9
2022-11-13T15:57:05.056Z,4.9
2022-11-13T15:58:13.613Z,6.1
2022-11-13T15:59:21.979Z,6.1
2022-11-13T16:00:30.327Z,6.1
2022-11-13T16:01:38.936Z,7.4
2022-11-13T16:02:47.258Z,7.4
2022-11-13T16:03:55.616Z,7.4
2022-11-13T16:05:04.190Z,7.4
2022-11-13T16:06:12.527Z,7.4
2022-11-13T16:07:21.045Z,7.4
2022-11-13T16:08:29.420Z,6.4
2022-11-13T16:09:37.763Z,6.4
2022-11-13T16:10:46.120Z,6.4
2022-11-13T16:11:54.685Z,7.6
2022-11-13T16:13:03.031Z,7.6
2022-11-13T16:14:11.405Z,7.6
2022-11-13T16:15:19.995Z,6.6
2022-11-13T16:16:28.317Z,6.6
2022-11-13T16:17:36.670Z,6.6
2022-11-13T16:18:45.232Z,7.9
2022-11-13T16:19:53.586Z,7.9
2022-11-13T16:21:01.942Z,7.9
2022-11-13T16:22:10.475Z,7.2